Graig Rotterdam — 2GAQ4 — position and weather

sailwx.info

Track history (hours):
 
Tides and Currents Weather Stations Pressure Air Temp Water Temp Dewpoint Dewpoint Depression Visibility Wind Speed Wind Dir Waves Ship Positions

Graig Rotterdam

Last reported at 2017-Oct-21 09:30 UTC. Time now 2017-Nov-20 07:34 UTC.
Position N 27°37' W 015°14'.
Warning: this ship's position is 29 days out of date.

Length 180 m; draft 9.9 m.

Type: Cargo ship. MMSI: 235095815.

Date/timePositionNaut miles runAvg speedWind from/ knotsBaromVisibWave heightAir tempDewpointWater temp
2017-Oct-21 09:30N 27°37' W 015°14'713.6
2017-Oct-21 09:00N 27°43' W 015°11'612.3
2017-Oct-21 08:30N 27°49' W 015°10'713.4
2017-Oct-21 08:00N 27°56' W 015°12'713.4
2017-Oct-21 07:30N 28°02' W 015°15'511.0
2017-Oct-21 07:00N 28°06' W 015°19'2 3.6
2017-Oct-21 06:30N 28°06' W 015°21'0 0.9
2017-Oct-21 06:00N 28°07' W 015°21'0 0.8
2017-Oct-21 05:30N 28°07' W 015°21'3 6.1
2017-Oct-21 05:00N 28°07' W 015°18'612.6
2017-Oct-21 04:30N 28°08' W 015°11'612.8
2017-Oct-21 04:00N 28°08' W 015°03'611.1
2017-Oct-21 03:30N 28°11' W 014°59'713.3
2017-Oct-21 03:00N 28°18' W 014°56'713.0
2017-Oct-21 02:30N 28°24' W 014°54'713.3
2017-Oct-21 02:00N 28°30' W 014°51'713.1
2017-Oct-21 01:30N 28°35' W 014°46'713.1
2017-Oct-21 01:00N 28°40' W 014°41'612.8
2017-Oct-21 00:30N 28°44' W 014°36'61212.2
2017-Oct-18 22:26N 35°57' W 006°03'612.9
2017-Oct-18 22:00N 35°58' W 005°57'812.8
2017-Oct-18 21:25N 35°57' W 005°47'512.7
2017-Oct-18 21:00N 35°57' W 005°41'510.8
2017-Oct-18 20:30N 35°58' W 005°34'5 9.5
2017-Oct-18 20:00N 35°59' W 005°29'5 9.0
2017-Oct-18 19:30N 36°03' W 005°25'4 7.6
2017-Oct-18 19:00N 36°06' W 005°24'0 0.1
2017-Oct-18 18:30N 36°06' W 005°24'0 0.1
2017-Oct-18 17:51N 36°06' W 005°24'0 0.1
2017-Oct-18 16:51N 36°06' W 005°24'0 0.1
2017-Oct-18 16:30N 36°06' W 005°24'0 0.0
2017-Oct-18 16:00N 36°06' W 005°24'0 0.1
2017-Oct-18 15:30N 36°06' W 005°24'0 0.0
2017-Oct-18 15:00N 36°06' W 005°24'0 0.2
2017-Oct-18 14:00N 36°06' W 005°24'0 0.1
2017-Oct-18 13:30N 36°06' W 005°24'0 0.0
2017-Oct-18 11:54N 36°06' W 005°24'0 0.0
2017-Oct-18 11:27N 36°06' W 005°24'0 0.2
2017-Oct-18 10:54N 36°06' W 005°24'0 0.0
2017-Oct-18 10:30N 36°06' W 005°24'0 0.0
2017-Oct-18 10:00N 36°06' W 005°24'0 0.0
2017-Oct-18 09:30N 36°06' W 005°24'0 0.1
2017-Oct-18 08:54N 36°06' W 005°24'0 0.0
2017-Oct-18 08:30N 36°06' W 005°24'0 0.1
2017-Oct-18 08:00N 36°06' W 005°24'0 0.1
2017-Oct-18 07:00N 36°06' W 005°24'0 0.0
2017-Oct-18 06:30N 36°06' W 005°24'0 0.0
2017-Oct-18 06:00N 36°06' W 005°24'0 0.0
2017-Oct-18 05:30N 36°06' W 005°24'0 0.2
2017-Oct-18 05:00N 36°06' W 005°24'0 0.3
2017-Oct-18 04:30N 36°06' W 005°24'0 0.3
2017-Oct-18 04:00N 36°06' W 005°24'0 0.1
2017-Oct-18 03:30N 36°06' W 005°24'0 0.0
2017-Oct-18 03:00N 36°06' W 005°24'0 0.2
2017-Oct-18 02:30N 36°06' W 005°24'0 0.0
2017-Oct-18 02:00N 36°06' W 005°24'0 0.1
2017-Oct-18 01:30N 36°06' W 005°24'0 0.2
2017-Oct-18 01:00N 36°06' W 005°24'0 0.0
2017-Oct-17 23:42N 36°06' W 005°24'0 0.1
2017-Oct-17 23:30N 36°06' W 005°24'0 0.0
2017-Oct-17 23:00N 36°06' W 005°24'0 0.0
2017-Oct-17 22:24N 36°06' W 005°24'0 0.1
2017-Oct-17 22:00N 36°06' W 005°24'0 0.0
2017-Oct-17 20:18N 36°06' W 005°24'0 0.1
2017-Oct-17 19:51N 36°06' W 005°24'0 0.1
2017-Oct-17 19:24N 36°06' W 005°24'0 0.0
2017-Oct-17 19:00N 36°06' W 005°24'0 0.3
2017-Oct-17 18:21N 36°06' W 005°24'0 0.5
2017-Oct-17 17:57N 36°06' W 005°24'3 6.1
2017-Oct-17 17:29N 36°05' W 005°21'510.8
2017-Oct-17 17:00N 36°06' W 005°15'  
2017-Oct-14 03:06N 35°56' W 005°06'113.5
2017-Oct-14 03:00N 35°57' W 005°08'713.6
2017-Oct-14 02:30N 35°58' W 005°16'613.0
2017-Oct-14 02:00N 35°58' W 005°24'1313.8
2017-Oct-14 01:02N 35°54' W 005°40'114.5
2017-Oct-14 00:58N 35°54' W 005°41'813.8
2017-Oct-14 00:24N 35°54' W 005°51'813.5
2017-Oct-13 23:51N 35°54' W 006°00'  
Track history (hours):
 
Tides and Currents Weather Stations Pressure Air Temp Water Temp Dewpoint Dewpoint Depression Visibility Wind Speed Wind Dir Waves Ship Positions

Graig Rotterdam

Last reported at 2017-Oct-21 09:30 UTC. Time now 2017-Nov-20 07:34 UTC.
Position N 27°37' W 015°14'.
Warning: this ship's position is 29 days out of date.

Length 180 m; draft 9.9 m.

Type: Cargo ship. MMSI: 235095815.

Date/timePositionNaut miles runAvg speedWind from/ knotsBaromVisibWave heightAir tempDewpointWater temp
2017-Oct-21 09:30N 27°37' W 015°14'713.6
2017-Oct-21 09:00N 27°43' W 015°11'612.3
2017-Oct-21 08:30N 27°49' W 015°10'713.4
2017-Oct-21 08:00N 27°56' W 015°12'713.4
2017-Oct-21 07:30N 28°02' W 015°15'511.0
2017-Oct-21 07:00N 28°06' W 015°19'2 3.6
2017-Oct-21 06:30N 28°06' W 015°21'0 0.9
2017-Oct-21 06:00N 28°07' W 015°21'0 0.8
2017-Oct-21 05:30N 28°07' W 015°21'3 6.1
2017-Oct-21 05:00N 28°07' W 015°18'612.6
2017-Oct-21 04:30N 28°08' W 015°11'612.8
2017-Oct-21 04:00N 28°08' W 015°03'611.1
2017-Oct-21 03:30N 28°11' W 014°59'713.3
2017-Oct-21 03:00N 28°18' W 014°56'713.0
2017-Oct-21 02:30N 28°24' W 014°54'713.3
2017-Oct-21 02:00N 28°30' W 014°51'713.1
2017-Oct-21 01:30N 28°35' W 014°46'713.1
2017-Oct-21 01:00N 28°40' W 014°41'612.8
2017-Oct-21 00:30N 28°44' W 014°36'61212.2
2017-Oct-18 22:26N 35°57' W 006°03'612.9
2017-Oct-18 22:00N 35°58' W 005°57'812.8
2017-Oct-18 21:25N 35°57' W 005°47'512.7
2017-Oct-18 21:00N 35°57' W 005°41'510.8
2017-Oct-18 20:30N 35°58' W 005°34'5 9.5
2017-Oct-18 20:00N 35°59' W 005°29'5 9.0
2017-Oct-18 19:30N 36°03' W 005°25'4 7.6
2017-Oct-18 19:00N 36°06' W 005°24'0 0.1
2017-Oct-18 18:30N 36°06' W 005°24'0 0.1
2017-Oct-18 17:51N 36°06' W 005°24'0 0.1
2017-Oct-18 16:51N 36°06' W 005°24'0 0.1
2017-Oct-18 16:30N 36°06' W 005°24'0 0.0
2017-Oct-18 16:00N 36°06' W 005°24'0 0.1
2017-Oct-18 15:30N 36°06' W 005°24'0 0.0
2017-Oct-18 15:00N 36°06' W 005°24'0 0.2
2017-Oct-18 14:00N 36°06' W 005°24'0 0.1
2017-Oct-18 13:30N 36°06' W 005°24'0 0.0
2017-Oct-18 11:54N 36°06' W 005°24'0 0.0
2017-Oct-18 11:27N 36°06' W 005°24'0 0.2
2017-Oct-18 10:54N 36°06' W 005°24'0 0.0
2017-Oct-18 10:30N 36°06' W 005°24'0 0.0
2017-Oct-18 10:00N 36°06' W 005°24'0 0.0
2017-Oct-18 09:30N 36°06' W 005°24'0 0.1
2017-Oct-18 08:54N 36°06' W 005°24'0 0.0
2017-Oct-18 08:30N 36°06' W 005°24'0 0.1
2017-Oct-18 08:00N 36°06' W 005°24'0 0.1
2017-Oct-18 07:00N 36°06' W 005°24'0 0.0
2017-Oct-18 06:30N 36°06' W 005°24'0 0.0
2017-Oct-18 06:00N 36°06' W 005°24'0 0.0
2017-Oct-18 05:30N 36°06' W 005°24'0 0.2
2017-Oct-18 05:00N 36°06' W 005°24'0 0.3
2017-Oct-18 04:30N 36°06' W 005°24'0 0.3
2017-Oct-18 04:00N 36°06' W 005°24'0 0.1
2017-Oct-18 03:30N 36°06' W 005°24'0 0.0
2017-Oct-18 03:00N 36°06' W 005°24'0 0.2
2017-Oct-18 02:30N 36°06' W 005°24'0 0.0
2017-Oct-18 02:00N 36°06' W 005°24'0 0.1
2017-Oct-18 01:30N 36°06' W 005°24'0 0.2
2017-Oct-18 01:00N 36°06' W 005°24'0 0.0
2017-Oct-17 23:42N 36°06' W 005°24'0 0.1
2017-Oct-17 23:30N 36°06' W 005°24'0 0.0
2017-Oct-17 23:00N 36°06' W 005°24'0 0.0
2017-Oct-17 22:24N 36°06' W 005°24'0 0.1
2017-Oct-17 22:00N 36°06' W 005°24'0 0.0
2017-Oct-17 20:18N 36°06' W 005°24'0 0.1
2017-Oct-17 19:51N 36°06' W 005°24'0 0.1
2017-Oct-17 19:24N 36°06' W 005°24'0 0.0
2017-Oct-17 19:00N 36°06' W 005°24'0 0.3
2017-Oct-17 18:21N 36°06' W 005°24'0 0.5
2017-Oct-17 17:57N 36°06' W 005°24'3 6.1
2017-Oct-17 17:29N 36°05' W 005°21'510.8
2017-Oct-17 17:00N 36°06' W 005°15'  
2017-Oct-14 03:06N 35°56' W 005°06'113.5
2017-Oct-14 03:00N 35°57' W 005°08'713.6
2017-Oct-14 02:30N 35°58' W 005°16'613.0
2017-Oct-14 02:00N 35°58' W 005°24'1313.8
2017-Oct-14 01:02N 35°54' W 005°40'114.5
2017-Oct-14 00:58N 35°54' W 005°41'813.8
2017-Oct-14 00:24N 35°54' W 005°51'813.5
2017-Oct-13 23:51N 35°54' W 006°00'  

Dump ship's entire track history